Time;durP1;ratioP1;P1;durP2;ratioP2;P2;SDS_P1;SDS_P2;PMS_P1;PMS_P2;Temp;Humidity;BMP_temperature;BMP_pressure;BME280_temperature;BME280_humidity;BME280_pressure;Samples;Min_cycle;Max_cycle;Signal;HPM_P1;HPM_P2
2021/09/13 00:02:33;;;;;;;13.70;4.38;;;;;;;;;;4999788;28;20033;-80
2021/09/13 00:04:58;;;;;;;11.18;3.55;;;;;;;;;;4998771;28;20409;-80
2021/09/13 00:07:32;;;;;;;14.50;3.97;;;;;;;;;;5001393;28;20052;-79
2021/09/13 00:09:58;;;;;;;12.75;4.43;;;;;;;;;;4999100;28;20120;-80
2021/09/13 00:12:27;;;;;;;15.43;4.05;;;;;;;;;;5000529;28;20040;-78
2021/09/13 00:14:53;;;;;;;24.00;5.38;;;;;;;;;;4959421;28;20554;-79
2021/09/13 00:17:18;;;;;;;14.80;5.97;;;;;;;;;;4994633;28;20065;-79
2021/09/13 00:19:44;;;;;;;21.75;5.47;;;;;;;;;;4982973;28;20533;-79
2021/09/13 00:22:10;;;;;;;26.58;5.72;;;;;;;;;;4967659;28;20070;-80
2021/09/13 00:24:39;;;;;;;17.75;4.63;;;;;;;;;;5003314;28;20045;-80
2021/09/13 00:27:05;;;;;;;19.55;4.90;;;;;;;;;;4986377;28;20041;-80
2021/09/13 00:29:30;;;;;;;17.00;4.97;;;;;;;;;;5001958;28;20041;-80
2021/09/13 00:31:56;;;;;;;18.98;4.45;;;;;;;;;;5003184;28;20535;-78
2021/09/13 00:34:22;;;;;;;13.60;5.13;;;;;;;;;;5002345;28;20041;-79
2021/09/13 00:36:48;;;;;;;18.70;4.22;;;;;;;;;;5003665;28;20418;-78
2021/09/13 00:39:14;;;;;;;24.52;4.47;;;;;;;;;;5001568;28;20117;-78
2021/09/13 00:41:39;;;;;;;19.30;4.53;;;;;;;;;;4986405;28;20427;-81
2021/09/13 00:44:05;;;;;;;44.83;17.08;;;;;;;;;;5003049;28;20418;-79
2021/09/13 00:46:31;;;;;;;23.70;5.45;;;;;;;;;;5002160;28;20052;-78
2021/09/13 00:48:57;;;;;;;27.33;5.63;;;;;;;;;;5001237;28;20049;-78
2021/09/13 00:51:26;;;;;;;20.20;6.35;;;;;;;;;;4992641;28;20044;-79
2021/09/13 00:53:51;;;;;;;14.40;4.07;;;;;;;;;;4993144;28;20075;-80
2021/09/13 00:56:17;;;;;;;28.48;5.05;;;;;;;;;;4984720;28;20056;-80
2021/09/13 00:58:43;;;;;;;16.17;5.32;;;;;;;;;;5001461;28;20037;-78
2021/09/13 01:01:09;;;;;;;20.40;6.05;;;;;;;;;;4995724;28;20037;-78
2021/09/13 01:03:35;;;;;;;13.85;5.28;;;;;;;;;;4958639;28;20057;-79
2021/09/13 01:06:00;;;;;;;21.48;6.97;;;;;;;;;;4965552;28;20490;-77
2021/09/13 01:08:27;;;;;;;19.75;5.63;;;;;;;;;;4986239;28;20049;-81
2021/09/13 01:10:54;;;;;;;31.60;9.07;;;;;;;;;;4997819;28;20053;-80
2021/09/13 01:13:20;;;;;;;26.63;7.50;;;;;;;;;;4981730;28;20061;-80
2021/09/13 01:15:46;;;;;;;18.75;5.63;;;;;;;;;;4984255;28;20462;-78
2021/09/13 01:18:11;;;;;;;11.68;5.20;;;;;;;;;;5001700;28;20033;-80
2021/09/13 01:20:37;;;;;;;12.07;4.55;;;;;;;;;;5000293;28;20069;-78
2021/09/13 01:23:08;;;;;;;17.92;5.28;;;;;;;;;;5001026;28;20519;-79
2021/09/13 01:25:36;;;;;;;;;;;;;;;;;;5002819;28;20097;-80
2021/09/13 01:28:03;;;;;;;19.55;4.68;;;;;;;;;;5017842;28;19991;-81
2021/09/13 01:30:29;;;;;;;22.70;6.40;;;;;;;;;;5000260;28;20434;-80
2021/09/13 01:32:55;;;;;;;21.55;5.20;;;;;;;;;;5000461;28;20041;-79
2021/09/13 01:35:20;;;;;;;17.35;5.95;;;;;;;;;;4962851;28;20048;-80
2021/09/13 01:37:46;;;;;;;22.20;5.72;;;;;;;;;;5000830;28;20045;-78
2021/09/13 01:40:12;;;;;;;15.45;5.78;;;;;;;;;;5000263;28;20041;-78
2021/09/13 01:42:38;;;;;;;26.30;5.80;;;;;;;;;;5000442;28;20041;-78
2021/09/13 01:45:04;;;;;;;15.38;6.18;;;;;;;;;;4999532;28;20037;-78
2021/09/13 01:47:30;;;;;;;31.40;5.75;;;;;;;;;;5001264;28;20131;-79
2021/09/13 01:49:56;;;;;;;17.77;5.32;;;;;;;;;;4998128;28;20136;-80
2021/09/13 01:52:22;;;;;;;25.65;5.82;;;;;;;;;;4989059;28;20041;-80
2021/09/13 01:54:47;;;;;;;49.55;7.05;;;;;;;;;;4995789;28;20037;-81
2021/09/13 01:57:13;;;;;;;18.02;5.20;;;;;;;;;;4995598;28;20617;-79
2021/09/13 01:59:39;;;;;;;27.90;5.88;;;;;;;;;;4977027;28;20041;-79
2021/09/13 02:02:05;;;;;;;17.38;5.30;;;;;;;;;;4963731;28;20400;-80
2021/09/13 02:04:30;;;;;;;17.40;6.72;;;;;;;;;;4974354;28;20537;-80
2021/09/13 02:06:57;;;;;;;18.23;5.90;;;;;;;;;;4999634;28;20093;-80
2021/09/13 02:09:25;;;;;;;16.73;5.63;;;;;;;;;;4992075;28;20041;-83
2021/09/13 02:11:51;;;;;;;16.88;4.93;;;;;;;;;;4988990;28;20053;-80
2021/09/13 02:14:17;;;;;;;16.88;5.22;;;;;;;;;;4988377;28;20120;-79
2021/09/13 02:16:42;;;;;;;16.25;7.20;;;;;;;;;;4997025;28;20041;-79
2021/09/13 02:19:08;;;;;;;23.13;6.55;;;;;;;;;;4995906;28;20056;-79
2021/09/13 02:21:34;;;;;;;19.77;6.38;;;;;;;;;;4996585;28;20527;-78
2021/09/13 02:24:00;;;;;;;21.38;7.18;;;;;;;;;;4996870;28;20163;-79
2021/09/13 02:26:26;;;;;;;18.30;5.72;;;;;;;;;;4999234;28;20103;-79
2021/09/13 02:28:51;;;;;;;15.05;6.32;;;;;;;;;;4998817;28;20052;-79
2021/09/13 02:31:17;;;;;;;22.92;7.95;;;;;;;;;;4964946;28;20057;-78
2021/09/13 02:33:43;;;;;;;18.33;7.45;;;;;;;;;;4992599;28;20037;-79
2021/09/13 02:36:09;;;;;;;16.58;6.55;;;;;;;;;;5000744;28;20040;-78
2021/09/13 02:38:35;;;;;;;18.83;5.60;;;;;;;;;;4999308;28;20060;-80
2021/09/13 02:41:00;;;;;;;20.02;6.32;;;;;;;;;;5000588;28;20037;-78
2021/09/13 02:43:26;;;;;;;23.10;6.53;;;;;;;;;;4999682;28;20033;-79
2021/09/13 02:45:52;;;;;;;27.63;6.75;;;;;;;;;;4962974;28;20049;-79
2021/09/13 02:48:18;;;;;;;86.85;56.55;;;;;;;;;;4979090;28;20141;-79
2021/09/13 02:50:59;;;;;;;89.45;56.63;;;;;;;;;;4996759;28;20068;-86
2021/09/13 02:53:29;;;;;;;34.22;13.25;;;;;;;;;;5010504;28;20414;-89
2021/09/13 02:55:55;;;;;;;34.78;23.67;;;;;;;;;;4983512;28;20485;-80
2021/09/13 02:58:21;;;;;;;24.25;9.15;;;;;;;;;;4992138;28;20542;-79
2021/09/13 03:00:47;;;;;;;22.77;6.20;;;;;;;;;;4995669;28;20045;-80
2021/09/13 03:03:13;;;;;;;20.38;6.45;;;;;;;;;;4989966;28;20068;-81
2021/09/13 03:05:38;;;;;;;17.80;5.22;;;;;;;;;;4999272;28;20127;-81
2021/09/13 03:08:04;;;;;;;14.82;4.03;;;;;;;;;;4962721;28;20037;-80
2021/09/13 03:10:30;;;;;;;20.65;4.97;;;;;;;;;;4979130;28;20038;-81
2021/09/13 03:12:56;;;;;;;65.07;43.40;;;;;;;;;;4993234;28;20051;-79
2021/09/13 03:15:22;;;;;;;90.30;65.03;;;;;;;;;;5000558;28;20067;-79
2021/09/13 03:17:48;;;;;;;31.83;17.85;;;;;;;;;;4998939;28;20518;-80
2021/09/13 03:20:13;;;;;;;69.88;47.63;;;;;;;;;;4982296;28;20041;-80
2021/09/13 03:22:39;;;;;;;50.55;33.75;;;;;;;;;;5000120;28;20041;-79
2021/09/13 03:25:05;;;;;;;32.35;16.00;;;;;;;;;;4993942;28;20038;-80
2021/09/13 03:27:32;;;;;;;21.02;7.28;;;;;;;;;;4976073;28;20044;-80
2021/09/13 03:29:58;;;;;;;128.05;83.07;;;;;;;;;;4998646;28;20124;-81
2021/09/13 03:32:24;;;;;;;52.65;34.50;;;;;;;;;;4981652;28;20045;-80
2021/09/13 03:34:49;;;;;;;28.80;5.03;;;;;;;;;;4982207;28;20048;-81
2021/09/13 03:37:15;;;;;;;66.10;46.95;;;;;;;;;;5014974;28;20037;-81
2021/09/13 03:39:41;;;;;;;168.60;103.63;;;;;;;;;;4997652;28;20673;-78
2021/09/13 03:42:07;;;;;;;98.28;57.95;;;;;;;;;;4997568;28;20064;-80
2021/09/13 03:44:33;;;;;;;148.23;95.88;;;;;;;;;;5015447;28;20104;-80
2021/09/13 03:46:59;;;;;;;89.35;53.35;;;;;;;;;;4999851;28;20038;-81
2021/09/13 03:49:24;;;;;;;125.03;81.07;;;;;;;;;;4998461;28;20049;-79
2021/09/13 03:51:50;;;;;;;32.28;18.48;;;;;;;;;;4997488;28;20045;-80
2021/09/13 03:54:16;;;;;;;40.28;21.80;;;;;;;;;;4997995;28;20037;-81
2021/09/13 03:56:42;;;;;;;16.65;5.20;;;;;;;;;;5031046;28;20128;-81
2021/09/13 03:59:08;;;;;;;17.42;6.50;;;;;;;;;;4998150;28;20037;-81
2021/09/13 04:01:34;;;;;;;14.57;3.72;;;;;;;;;;4983515;28;20037;-81
2021/09/13 04:04:04;;;;;;;21.88;6.93;;;;;;;;;;4967483;28;20215;-83
2021/09/13 04:11:38;;;;;;;115.15;69.25;;;;;;;;;;5001720;28;20635;-81
2021/09/13 04:14:04;;;;;;;147.70;88.57;;;;;;;;;;4970143;28;20033;-82
2021/09/13 04:16:30;;;;;;;68.47;41.95;;;;;;;;;;5002356;28;20123;-80
2021/09/13 04:18:55;;;;;;;23.00;4.72;;;;;;;;;;4993602;28;20519;-80
2021/09/13 04:21:21;;;;;;;18.20;4.97;;;;;;;;;;4973409;28;20034;-82
2021/09/13 04:23:50;;;;;;;27.83;8.20;;;;;;;;;;5001825;28;20146;-82
2021/09/13 04:26:16;;;;;;;33.22;9.05;;;;;;;;;;5001870;28;20122;-79
2021/09/13 04:28:41;;;;;;;35.85;14.77;;;;;;;;;;4992201;28;20474;-79
2021/09/13 04:31:07;;;;;;;28.48;9.65;;;;;;;;;;4985300;28;20680;-80
2021/09/13 04:33:33;;;;;;;27.20;8.65;;;;;;;;;;5001246;28;20037;-79
2021/09/13 04:35:59;;;;;;;19.45;5.75;;;;;;;;;;4984922;28;20041;-79
2021/09/13 04:38:24;;;;;;;17.38;4.97;;;;;;;;;;4984778;28;20120;-80
2021/09/13 04:40:50;;;;;;;12.38;4.10;;;;;;;;;;5002920;28;20106;-80
2021/09/13 04:43:16;;;;;;;21.55;5.63;;;;;;;;;;4984749;28;20043;-79
2021/09/13 04:45:42;;;;;;;16.45;5.30;;;;;;;;;;5001396;28;20110;-80
2021/09/13 04:48:08;;;;;;;22.50;5.88;;;;;;;;;;5017676;28;20554;-80
2021/09/13 04:50:34;;;;;;;16.63;5.22;;;;;;;;;;5034003;28;20442;-80
2021/09/13 04:52:59;;;;;;;14.00;4.38;;;;;;;;;;5017819;28;20526;-81
2021/09/13 04:55:25;;;;;;;15.50;3.50;;;;;;;;;;5017964;28;20045;-80
2021/09/13 04:57:51;;;;;;;17.48;5.38;;;;;;;;;;5027977;28;20063;-81
2021/09/13 05:00:17;;;;;;;18.65;4.93;;;;;;;;;;4999096;28;20102;-84
2021/09/13 05:02:43;;;;;;;19.75;4.85;;;;;;;;;;4993632;28;20034;-80
2021/09/13 05:05:09;;;;;;;22.15;4.85;;;;;;;;;;5001519;28;20116;-80
2021/09/13 05:07:38;;;;;;;17.40;6.30;;;;;;;;;;4987371;28;20044;-79
2021/09/13 05:10:04;;;;;;;25.00;6.38;;;;;;;;;;4992749;28;20048;-78
2021/09/13 05:12:30;;;;;;;16.17;5.32;;;;;;;;;;4986573;28;20033;-81
2021/09/13 05:14:56;;;;;;;20.85;5.63;;;;;;;;;;5017706;28;20052;-79
2021/09/13 05:17:21;;;;;;;20.42;5.50;;;;;;;;;;5002372;28;20057;-79
2021/09/13 05:19:47;;;;;;;16.33;4.38;;;;;;;;;;5033179;28;20041;-81
2021/09/13 05:22:13;;;;;;;16.27;5.95;;;;;;;;;;5017158;28;20037;-80
2021/09/13 05:24:39;;;;;;;17.02;5.30;;;;;;;;;;5034309;28;20083;-80
2021/09/13 05:27:05;;;;;;;18.08;4.18;;;;;;;;;;5035743;28;20037;-80
2021/09/13 05:29:30;;;;;;;19.40;4.32;;;;;;;;;;5021194;28;20041;-80
2021/09/13 05:31:56;;;;;;;18.80;5.05;;;;;;;;;;5019092;28;20051;-81
2021/09/13 05:34:22;;;;;;;16.83;3.88;;;;;;;;;;5001217;28;20425;-78
2021/09/13 05:36:48;;;;;;;21.50;6.22;;;;;;;;;;5000202;28;20038;-80
2021/09/13 05:39:14;;;;;;;16.50;5.10;;;;;;;;;;5001842;28;20041;-80
2021/09/13 05:41:40;;;;;;;14.27;4.57;;;;;;;;;;5033842;28;20388;-81
2021/09/13 05:44:06;;;;;;;15.60;4.43;;;;;;;;;;5016336;28;20439;-79
2021/09/13 05:46:32;;;;;;;17.83;5.10;;;;;;;;;;5001571;28;20546;-81
2021/09/13 05:48:58;;;;;;;15.05;5.07;;;;;;;;;;5032829;28;20521;-78
2021/09/13 05:51:24;;;;;;;15.85;5.05;;;;;;;;;;5034368;28;20048;-79
2021/09/13 05:53:50;;;;;;;17.80;5.63;;;;;;;;;;5000945;28;20090;-81
2021/09/13 05:56:16;;;;;;;24.17;5.28;;;;;;;;;;4984413;28;20064;-81
2021/09/13 05:58:41;;;;;;;15.70;5.07;;;;;;;;;;4980737;28;20083;-77
2021/09/13 06:01:07;;;;;;;17.75;5.30;;;;;;;;;;4982268;28;20049;-79
2021/09/13 06:03:33;;;;;;;13.32;4.65;;;;;;;;;;4977581;28;20038;-79
2021/09/13 06:05:59;;;;;;;22.55;4.88;;;;;;;;;;4967208;28;20041;-81
2021/09/13 06:08:25;;;;;;;16.33;4.75;;;;;;;;;;4983320;28;20037;-80
2021/09/13 06:10:50;;;;;;;9.15;4.28;;;;;;;;;;5001883;28;20037;-80
2021/09/13 06:13:16;;;;;;;13.25;5.20;;;;;;;;;;4999712;28;20040;-81
2021/09/13 06:15:42;;;;;;;17.10;4.93;;;;;;;;;;4999614;28;20060;-79
2021/09/13 06:18:08;;;;;;;17.45;5.40;;;;;;;;;;5032137;28;20538;-79
2021/09/13 06:20:34;;;;;;;20.35;6.68;;;;;;;;;;4999852;28;20108;-80
2021/09/13 06:23:00;;;;;;;14.98;5.65;;;;;;;;;;5032218;28;20430;-79
2021/09/13 06:25:26;;;;;;;17.10;6.05;;;;;;;;;;5016085;28;20049;-80
2021/09/13 06:27:51;;;;;;;10.88;4.25;;;;;;;;;;5015827;28;20419;-79
2021/09/13 06:30:17;;;;;;;21.52;5.95;;;;;;;;;;5000839;28;20041;-79
2021/09/13 06:32:43;;;;;;;24.83;4.75;;;;;;;;;;5006788;28;20396;-80
2021/09/13 06:35:09;;;;;;;13.32;4.25;;;;;;;;;;5016275;28;20046;-79
2021/09/13 06:37:35;;;;;;;18.15;4.28;;;;;;;;;;5032036;28;20037;-81
2021/09/13 06:40:01;;;;;;;15.20;5.38;;;;;;;;;;5032264;28;20037;-79
2021/09/13 06:42:27;;;;;;;12.50;4.78;;;;;;;;;;5031771;28;20099;-80
2021/09/13 06:44:55;;;;;;;14.27;5.40;;;;;;;;;;5015617;28;20033;-79
2021/09/13 06:48:06;;;;;;;12.43;4.35;;;;;;;;;;5031156;28;20041;-80
2021/09/13 06:50:07;;;;;;;14.70;5.07;;;;;;;;;;5002367;28;20045;-79
2021/09/13 06:52:34;;;;;;;17.60;5.22;;;;;;;;;;4999225;28;20530;-79
2021/09/13 06:54:59;;;;;;;14.35;5.03;;;;;;;;;;5031553;28;20071;-79
2021/09/13 06:57:25;;;;;;;13.02;4.78;;;;;;;;;;5029118;28;20055;-81
2021/09/13 06:59:51;;;;;;;14.15;4.70;;;;;;;;;;4999663;28;20037;-81
2021/09/13 07:02:17;;;;;;;14.40;5.38;;;;;;;;;;4998762;28;20037;-80
2021/09/13 07:04:43;;;;;;;15.10;5.53;;;;;;;;;;4999599;28;20052;-79
2021/09/13 07:07:09;;;;;;;13.70;5.63;;;;;;;;;;5015815;28;20619;-79
2021/09/13 07:09:35;;;;;;;16.58;5.35;;;;;;;;;;4982375;28;20041;-80
2021/09/13 07:12:01;;;;;;;14.40;5.25;;;;;;;;;;4999474;28;20129;-79
2021/09/13 07:14:27;;;;;;;16.42;5.13;;;;;;;;;;4999136;28;20121;-80
2021/09/13 07:16:53;;;;;;;11.40;5.20;;;;;;;;;;5000005;28;20045;-79
2021/09/13 07:19:19;;;;;;;12.32;4.80;;;;;;;;;;4982620;28;20048;-78
2021/09/13 07:21:45;;;;;;;17.52;5.05;;;;;;;;;;4982339;28;20044;-80
2021/09/13 07:24:10;;;;;;;11.88;4.85;;;;;;;;;;4999387;28;20056;-80
2021/09/13 07:26:36;;;;;;;11.98;4.95;;;;;;;;;;5015208;28;20073;-79
2021/09/13 07:29:03;;;;;;;16.35;4.65;;;;;;;;;;4982918;28;20072;-79
2021/09/13 07:31:29;;;;;;;13.02;4.88;;;;;;;;;;5001097;28;20061;-79
2021/09/13 07:33:55;;;;;;;11.70;4.35;;;;;;;;;;5000913;28;20033;-80
2021/09/13 07:36:21;;;;;;;12.82;3.88;;;;;;;;;;5003679;28;20403;-79
2021/09/13 07:38:47;;;;;;;12.15;3.70;;;;;;;;;;4985869;28;20041;-81
2021/09/13 07:41:13;;;;;;;14.15;4.93;;;;;;;;;;5003585;28;20411;-80
2021/09/13 07:43:38;;;;;;;11.93;4.68;;;;;;;;;;4995023;28;20042;-78
2021/09/13 07:46:04;;;;;;;17.23;4.43;;;;;;;;;;4976841;28;20035;-82
2021/09/13 07:48:30;;;;;;;13.43;4.80;;;;;;;;;;4996704;28;20083;-78
2021/09/13 07:50:56;;;;;;;11.32;5.40;;;;;;;;;;4982292;28;20046;-81
2021/09/13 07:53:22;;;;;;;6.03;3.40;;;;;;;;;;5003504;28;20098;-80
2021/09/13 07:55:48;;;;;;;9.18;4.85;;;;;;;;;;4985593;28;20255;-80
2021/09/13 07:58:14;;;;;;;13.40;5.10;;;;;;;;;;5001060;28;20056;-81
2021/09/13 08:00:39;;;;;;;14.85;5.70;;;;;;;;;;4984106;28;20037;-84
2021/09/13 08:03:05;;;;;;;16.67;6.18;;;;;;;;;;4982179;28;20056;-82
2021/09/13 08:05:31;;;;;;;11.00;5.40;;;;;;;;;;4967139;28;20083;-85
2021/09/13 08:07:57;;;;;;;15.00;6.28;;;;;;;;;;4956993;28;20049;-82
2021/09/13 08:10:23;;;;;;;19.20;10.40;;;;;;;;;;4986876;28;20479;-80
2021/09/13 08:12:49;;;;;;;67.50;24.65;;;;;;;;;;4958929;28;20125;-81
2021/09/13 08:15:16;;;;;;;95.10;62.78;;;;;;;;;;5003366;28;20041;-88
2021/09/13 08:17:41;;;;;;;183.30;150.38;;;;;;;;;;4982468;28;20037;-80
2021/09/13 08:20:07;;;;;;;37.33;22.58;;;;;;;;;;4986497;28;20086;-80
2021/09/13 08:22:33;;;;;;;193.60;146.65;;;;;;;;;;5000934;28;20422;-81
2021/09/13 08:24:59;;;;;;;819.67;508.50;;;;;;;;;;5018721;28;20112;-80
2021/09/13 08:27:25;;;;;;;1351.07;852.13;;;;;;;;;;5003279;28;20106;-79
2021/09/13 08:29:51;;;;;;;523.85;379.50;;;;;;;;;;5001272;28;20048;-79
2021/09/13 08:32:17;;;;;;;485.25;348.65;;;;;;;;;;4968277;28;20033;-78
2021/09/13 08:34:43;;;;;;;813.78;571.42;;;;;;;;;;4998731;28;20033;-80
2021/09/13 08:37:08;;;;;;;670.80;451.63;;;;;;;;;;5001041;28;20108;-80
2021/09/13 08:39:34;;;;;;;272.05;194.38;;;;;;;;;;4995575;28;20040;-80
2021/09/13 08:42:00;;;;;;;329.27;225.05;;;;;;;;;;4995116;28;20037;-78
2021/09/13 08:44:26;;;;;;;400.20;297.20;;;;;;;;;;4999823;28;20045;-82
2021/09/13 08:46:58;;;;;;;1075.32;777.70;;;;;;;;;;4989233;28;20084;-82
2021/09/13 08:49:29;;;;;;;195.27;147.90;;;;;;;;;;4997554;28;20118;-80
2021/09/13 08:51:55;;;;;;;270.48;196.02;;;;;;;;;;4990608;28;20041;-80
2021/09/13 08:54:24;;;;;;;391.25;263.70;;;;;;;;;;4997757;28;20373;-79
2021/09/13 08:56:56;;;;;;;608.97;486.77;;;;;;;;;;5014921;28;20093;-81
2021/09/13 08:59:24;;;;;;;309.73;249.25;;;;;;;;;;4954033;28;20037;-81
2021/09/13 09:01:51;;;;;;;477.98;354.90;;;;;;;;;;5002204;28;20041;-80
2021/09/13 09:04:17;;;;;;;190.75;140.43;;;;;;;;;;5002541;28;20041;-80
2021/09/13 09:06:44;;;;;;;1304.25;852.55;;;;;;;;;;4996570;28;20392;-79
2021/09/13 09:09:11;;;;;;;175.93;136.60;;;;;;;;;;5001952;28;20052;-78
2021/09/13 09:12:00;;;;;;;1028.85;780.90;;;;;;;;;;5000854;28;20056;-83
2021/09/13 09:14:32;;;;;;;299.08;222.23;;;;;;;;;;4968767;28;20110;-83
2021/09/13 09:17:08;;;;;;;329.23;233.02;;;;;;;;;;4985242;28;20549;-81
2021/09/13 09:19:34;;;;;;;482.88;410.08;;;;;;;;;;4984410;28;20041;-81
2021/09/13 09:22:22;;;;;;;319.25;278.02;;;;;;;;;;4983938;28;20052;-81
2021/09/13 09:24:48;;;;;;;94.93;80.55;;;;;;;;;;4967426;28;20100;-83
2021/09/13 09:27:14;;;;;;;41.72;36.53;;;;;;;;;;4976318;28;20052;-82
2021/09/13 09:29:40;;;;;;;19.20;12.40;;;;;;;;;;4983796;28;20037;-79
2021/09/13 09:32:06;;;;;;;50.42;45.85;;;;;;;;;;4986411;28;20108;-78
2021/09/13 09:34:33;;;;;;;19.42;11.27;;;;;;;;;;5000757;28;20040;-78
2021/09/13 09:36:59;;;;;;;11.75;6.85;;;;;;;;;;4987910;28;20068;-79
2021/09/13 09:39:29;;;;;;;21.13;11.73;;;;;;;;;;5000710;28;20112;-80
2021/09/13 09:41:57;;;;;;;8.95;3.47;;;;;;;;;;5000601;28;20380;-79
2021/09/13 09:44:24;;;;;;;15.13;5.00;;;;;;;;;;5001548;28;20033;-83
2021/09/13 09:46:52;;;;;;;15.73;6.55;;;;;;;;;;4992787;28;20052;-81
2021/09/13 09:49:20;;;;;;;12.75;3.88;;;;;;;;;;4986202;28;20102;-80
2021/09/13 09:51:55;;;;;;;16.25;6.25;;;;;;;;;;4986364;28;20592;-79
2021/09/13 09:54:23;;;;;;;14.20;5.50;;;;;;;;;;5000170;28;20045;-79
2021/09/13 09:57:03;;;;;;;9.82;4.80;;;;;;;;;;4982392;28;20037;-79
2021/09/13 09:59:36;;;;;;;8.70;3.23;;;;;;;;;;4949490;28;20059;-77
2021/09/13 10:02:18;;;;;;;14.45;5.32;;;;;;;;;;4982220;28;20263;-78
2021/09/13 10:04:48;;;;;;;16.83;5.97;;;;;;;;;;5017792;28;20038;-78
2021/09/13 10:07:14;;;;;;;16.73;5.75;;;;;;;;;;4982595;28;20047;-79
2021/09/13 10:09:41;;;;;;;17.25;8.05;;;;;;;;;;4997246;28;20050;-79
2021/09/13 10:12:07;;;;;;;22.45;10.93;;;;;;;;;;4994702;28;20144;-80
2021/09/13 10:14:33;;;;;;;9.13;4.28;;;;;;;;;;4996039;28;20045;-78
2021/09/13 10:16:59;;;;;;;20.27;9.23;;;;;;;;;;4980121;28;20041;-78
2021/09/13 10:19:25;;;;;;;8.45;3.40;;;;;;;;;;4975040;28;20044;-79
2021/09/13 10:21:52;;;;;;;16.80;9.38;;;;;;;;;;4999292;28;20056;-80
2021/09/13 10:24:24;;;;;;;32.03;24.55;;;;;;;;;;5000313;28;20526;-80
2021/09/13 10:26:59;;;;;;;18.48;7.80;;;;;;;;;;4983153;28;20511;-83
2021/09/13 10:29:29;;;;;;;18.92;8.88;;;;;;;;;;4980635;28;20103;-79
2021/09/13 10:32:00;;;;;;;21.38;12.27;;;;;;;;;;4989108;28;20037;-81
2021/09/13 10:34:31;;;;;;;17.35;9.15;;;;;;;;;;4978842;28;20034;-82
2021/09/13 10:37:02;;;;;;;13.80;5.60;;;;;;;;;;4970405;28;20044;-84
2021/09/13 10:39:46;;;;;;;;;;;;;;;;;;5015724;28;20049;-80
2021/09/13 10:42:40;;;;;;;106.72;80.78;;;;;;;;;;5000491;28;20290;-80
2021/09/13 10:45:25;;;;;;;31.55;22.77;;;;;;;;;;4999555;28;20045;-81
2021/09/13 10:47:54;;;;;;;19.83;13.00;;;;;;;;;;4985370;28;20403;-81
2021/09/13 10:50:20;;;;;;;28.27;19.58;;;;;;;;;;4989501;28;20053;-82
2021/09/13 10:52:52;;;;;;;18.33;8.32;;;;;;;;;;4998860;28;20056;-82
2021/09/13 10:55:20;;;;;;;29.10;14.95;;;;;;;;;;4996201;28;20037;-81
2021/09/13 10:58:00;;;;;;;17.92;8.75;;;;;;;;;;4958572;28;20041;-80
2021/09/13 11:00:41;;;;;;;24.60;11.43;;;;;;;;;;4972237;28;20457;-80
2021/09/13 11:03:22;;;;;;;26.27;11.98;;;;;;;;;;4994855;28;20039;-80
2021/09/13 11:06:18;;;;;;;50.17;28.08;;;;;;;;;;4997000;28;20413;-82
2021/09/13 11:08:48;;;;;;;44.08;23.92;;;;;;;;;;4979831;28;20113;-82
2021/09/13 11:11:25;;;;;;;19.55;9.35;;;;;;;;;;4998133;28;20545;-81
2021/09/13 11:13:59;;;;;;;33.17;19.20;;;;;;;;;;4998233;28;20414;-82
2021/09/13 11:16:26;;;;;;;41.00;33.60;;;;;;;;;;4979888;28;20646;-81
2021/09/13 11:18:53;;;;;;;26.45;14.30;;;;;;;;;;4990923;28;20104;-82
2021/09/13 11:21:33;;;;;;;11.30;4.32;;;;;;;;;;4983092;28;20033;-80
2021/09/13 11:24:10;;;;;;;42.42;29.70;;;;;;;;;;4982205;28;20037;-81
2021/09/13 11:26:49;;;;;;;10.57;4.10;;;;;;;;;;4988284;28;20037;-81
2021/09/13 11:29:28;;;;;;;55.72;41.75;;;;;;;;;;4994686;28;20041;-82
2021/09/13 11:31:58;;;;;;;49.72;33.40;;;;;;;;;;4982499;28;20422;-81
2021/09/13 11:34:30;;;;;;;20.10;4.78;;;;;;;;;;4998748;28;20037;-81
2021/09/13 11:37:08;;;;;;;59.00;43.38;;;;;;;;;;4987173;28;20053;-82
2021/09/13 11:39:45;;;;;;;89.10;74.45;;;;;;;;;;4993698;28;20542;-80
2021/09/13 11:42:13;;;;;;;37.95;27.10;;;;;;;;;;5014355;28;20099;-78
2021/09/13 11:44:39;;;;;;;61.88;48.72;;;;;;;;;;4988376;28;20058;-81
2021/09/13 11:47:06;;;;;;;15.80;9.88;;;;;;;;;;4987670;28;20041;-79
2021/09/13 11:49:36;;;;;;;63.97;49.90;;;;;;;;;;4997662;28;20049;-80
2021/09/13 11:52:06;;;;;;;29.00;12.88;;;;;;;;;;5014717;28;20045;-79
2021/09/13 11:55:04;;;;;;;52.28;39.80;;;;;;;;;;5014497;28;20048;-79
2021/09/13 11:57:31;;;;;;;19.73;8.32;;;;;;;;;;4996282;28;20585;-80
2021/09/13 12:00:03;;;;;;;67.38;49.30;;;;;;;;;;5011140;28;20651;-79
2021/09/13 12:02:29;;;;;;;19.80;7.72;;;;;;;;;;5016078;28;20065;-79
2021/09/13 12:04:57;;;;;;;26.42;12.82;;;;;;;;;;4986863;28;20095;-79
2021/09/13 12:07:22;;;;;;;17.65;8.55;;;;;;;;;;4996294;28;20037;-80
2021/09/13 12:09:49;;;;;;;21.42;9.52;;;;;;;;;;4997404;28;20723;-78
2021/09/13 12:12:23;;;;;;;20.90;5.20;;;;;;;;;;5000976;28;20168;-81
2021/09/13 12:14:49;;;;;;;43.03;24.52;;;;;;;;;;4987179;28;20041;-82
2021/09/13 12:17:17;;;;;;;39.50;20.20;;;;;;;;;;4998478;28;20036;-83
2021/09/13 12:19:44;;;;;;;17.27;7.75;;;;;;;;;;4986466;28;20038;-80
2021/09/13 12:22:11;;;;;;;16.23;4.60;;;;;;;;;;4979378;28;20034;-80
2021/09/13 12:24:37;;;;;;;15.02;4.72;;;;;;;;;;4983929;28;20045;-80
2021/09/13 12:27:13;;;;;;;19.40;4.88;;;;;;;;;;4984838;28;20461;-81
2021/09/13 12:30:03;;;;;;;21.20;4.78;;;;;;;;;;4997088;28;20057;-81
2021/09/13 12:32:31;;;;;;;30.50;13.68;;;;;;;;;;4966604;28;20099;-81
2021/09/13 12:35:02;;;;;;;164.00;126.32;;;;;;;;;;4957738;28;20105;-80
2021/09/13 12:37:30;;;;;;;14.93;4.95;;;;;;;;;;4995684;28;20042;-78
2021/09/13 12:40:12;;;;;;;178.93;146.68;;;;;;;;;;4980657;28;20037;-82
2021/09/13 12:42:39;;;;;;;26.23;10.90;;;;;;;;;;4999619;28;20056;-81
2021/09/13 12:45:06;;;;;;;123.53;77.28;;;;;;;;;;5001217;28;20037;-80
2021/09/13 12:47:32;;;;;;;108.95;68.93;;;;;;;;;;4956056;28;20037;-81
2021/09/13 12:49:58;;;;;;;754.72;536.20;;;;;;;;;;5000837;28;20132;-82
2021/09/13 12:52:24;;;;;;;787.22;598.78;;;;;;;;;;4979247;28;20046;-79
2021/09/13 12:54:51;;;;;;;497.75;370.02;;;;;;;;;;4993393;28;20048;-80
2021/09/13 12:57:36;;;;;;;17.50;4.70;;;;;;;;;;4997995;28;20067;-80
2021/09/13 13:00:12;;;;;;;173.60;137.60;;;;;;;;;;4976653;28;20037;-79
2021/09/13 13:02:38;;;;;;;23.98;5.88;;;;;;;;;;4983931;28;20060;-79
2021/09/13 13:05:06;;;;;;;18.00;5.40;;;;;;;;;;4982967;28;20026;-78
2021/09/13 13:07:34;;;;;;;121.90;105.38;;;;;;;;;;4985614;28;20057;-79
2021/09/13 13:10:00;;;;;;;19.25;8.43;;;;;;;;;;4991450;28;20037;-79
2021/09/13 13:12:25;;;;;;;71.05;51.47;;;;;;;;;;4999876;28;20106;-77
2021/09/13 13:14:52;;;;;;;28.27;17.27;;;;;;;;;;5018766;28;20039;-79
2021/09/13 13:17:18;;;;;;;87.15;76.95;;;;;;;;;;5003285;28;20037;-78
2021/09/13 13:19:44;;;;;;;14.65;4.30;;;;;;;;;;4995219;28;20098;-77
2021/09/13 13:22:10;;;;;;;31.05;22.80;;;;;;;;;;4981850;28;20107;-80
2021/09/13 13:24:38;;;;;;;16.75;8.52;;;;;;;;;;5001412;28;20043;-81
2021/09/13 13:27:05;;;;;;;28.92;16.48;;;;;;;;;;5000221;28;20033;-80
2021/09/13 13:29:33;;;;;;;16.42;5.70;;;;;;;;;;5016458;28;20045;-80
2021/09/13 13:31:59;;;;;;;18.92;5.05;;;;;;;;;;5032550;28;20251;-80
2021/09/13 13:34:28;;;;;;;21.58;8.55;;;;;;;;;;5004509;28;20149;-79
2021/09/13 13:36:54;;;;;;;14.85;4.13;;;;;;;;;;4999245;28;20037;-80
2021/09/13 13:39:20;;;;;;;10.70;5.00;;;;;;;;;;4988176;28;20037;-81
2021/09/13 13:41:45;;;;;;;22.40;6.38;;;;;;;;;;4996660;28;20473;-81
2021/09/13 13:44:11;;;;;;;27.45;14.68;;;;;;;;;;4977298;28;20049;-82
2021/09/13 13:46:37;;;;;;;12.52;4.13;;;;;;;;;;4989762;28;20058;-81
2021/09/13 13:49:09;;;;;;;24.52;13.95;;;;;;;;;;4989254;28;20045;-80
2021/09/13 13:51:38;;;;;;;28.02;7.32;;;;;;;;;;4980742;28;20600;-80
2021/09/13 13:54:04;;;;;;;21.05;8.82;;;;;;;;;;4993934;28;20045;-82
2021/09/13 13:56:32;;;;;;;25.77;11.50;;;;;;;;;;4996882;28;20029;-81
2021/09/13 13:59:00;;;;;;;27.20;17.58;;;;;;;;;;4995210;28;20037;-81
2021/09/13 14:01:30;;;;;;;25.88;15.77;;;;;;;;;;5015740;28;20522;-78
2021/09/13 14:03:56;;;;;;;18.03;6.53;;;;;;;;;;5002027;28;20500;-78
2021/09/13 14:06:22;;;;;;;21.92;7.03;;;;;;;;;;4986108;28;20302;-77
2021/09/13 14:08:50;;;;;;;24.40;5.55;;;;;;;;;;5000961;28;20060;-77
2021/09/13 14:11:16;;;;;;;30.45;11.85;;;;;;;;;;4964504;28;20117;-78
2021/09/13 14:13:42;;;;;;;131.52;83.50;;;;;;;;;;4999070;28;20041;-79
2021/09/13 14:16:07;;;;;;;161.18;110.95;;;;;;;;;;5003691;28;20090;-78
2021/09/13 14:18:35;;;;;;;47.47;24.80;;;;;;;;;;4999215;28;20037;-77
2021/09/13 14:21:01;;;;;;;118.68;81.75;;;;;;;;;;4979813;28;20052;-77
2021/09/13 14:23:27;;;;;;;175.07;120.40;;;;;;;;;;4999659;28;20115;-77
2021/09/13 14:25:53;;;;;;;86.18;60.10;;;;;;;;;;4982236;28;20123;-78
2021/09/13 14:28:18;;;;;;;21.48;9.07;;;;;;;;;;4998680;28;20543;-77
2021/09/13 14:30:44;;;;;;;62.78;39.38;;;;;;;;;;4971249;28;20044;-78
2021/09/13 14:33:10;;;;;;;46.55;27.80;;;;;;;;;;4981213;28;20687;-78